Time;durP1;ratioP1;P1;durP2;ratioP2;P2;SDS_P1;SDS_P2;PMS_P1;PMS_P2;Temp;Humidity;BMP_temperature;BMP_pressure;BME280_temperature;BME280_humidity;BME280_pressure;Samples;Min_cycle;Max_cycle;Signal;HPM_P1;HPM_P2
2023/10/20 04:24:17;;;;;;;1.60;1.45;;;;;;;;;;5161517;27;20367;-85
2023/10/20 04:26:45;;;;;;;4.18;2.53;;;;;;;;;;5149118;27;20031;-86
2023/10/20 04:48:20;;;;;;;2.85;1.58;;;;;;;;;;5145369;27;20061;-85
2023/10/20 04:51:08;;;;;;;2.17;1.75;;;;;;;;;;5127936;27;20152;-86
2023/10/20 04:53:53;;;;;;;2.20;1.38;;;;;;;;;;5127955;27;20038;-86
2023/10/20 04:56:31;;;;;;;2.08;1.67;;;;;;;;;;5147485;27;20014;-85
2023/10/20 04:59:05;;;;;;;3.35;2.47;;;;;;;;;;5130014;27;20039;-86
2023/10/20 05:01:47;;;;;;;3.97;2.28;;;;;;;;;;5128188;27;20478;-84
2023/10/20 05:04:28;;;;;;;1.38;1.27;;;;;;;;;;5143494;27;20106;-85
2023/10/20 05:06:58;;;;;;;2.03;1.67;;;;;;;;;;5148441;27;20023;-85
2023/10/20 05:09:25;;;;;;;2.83;2.10;;;;;;;;;;5146487;27;20030;-86
2023/10/20 05:11:53;;;;;;;2.47;1.73;;;;;;;;;;5145387;27;20027;-86
2023/10/20 05:14:18;;;;;;;2.22;1.33;;;;;;;;;;5146554;27;20058;-86
2023/10/20 05:16:43;;;;;;;1.40;1.30;;;;;;;;;;5129635;27;20030;-85
2023/10/20 05:19:10;;;;;;;4.18;1.88;;;;;;;;;;5123981;27;20091;-85
2023/10/20 05:21:38;;;;;;;1.70;1.60;;;;;;;;;;5145924;27;20027;-86
2023/10/20 05:24:04;;;;;;;3.92;1.60;;;;;;;;;;5128404;27;20062;-84
2023/10/20 05:26:31;;;;;;;2.30;2.08;;;;;;;;;;5145275;27;20023;-85
2023/10/20 05:28:57;;;;;;;2.53;1.50;;;;;;;;;;5127381;27;20027;-87
2023/10/20 05:31:26;;;;;;;2.28;1.60;;;;;;;;;;5127181;27;20374;-86
2023/10/20 05:33:53;;;;;;;3.38;2.17;;;;;;;;;;5141523;27;20415;-87
2023/10/20 05:36:18;;;;;;;0.95;0.95;;;;;;;;;;5132950;27;20031;-90
2023/10/20 05:38:44;;;;;;;2.35;1.75;;;;;;;;;;5115202;27;20023;-85
2023/10/20 05:41:11;;;;;;;1.38;1.20;;;;;;;;;;5128444;27;20055;-87
2023/10/20 05:43:37;;;;;;;3.03;2.13;;;;;;;;;;5131033;27;20026;-87
2023/10/20 05:46:02;;;;;;;3.28;1.90;;;;;;;;;;5114050;27;20039;-88
2023/10/20 05:48:28;;;;;;;3.15;1.92;;;;;;;;;;5130861;27;20387;-87
2023/10/20 05:50:58;;;;;;;3.83;2.90;;;;;;;;;;5111178;27;20022;-86
2023/10/20 05:53:24;;;;;;;8.38;1.83;;;;;;;;;;5134060;27;20030;-86
2023/10/20 05:55:50;;;;;;;1.00;0.93;;;;;;;;;;5110281;27;20032;-85
2023/10/20 05:58:15;;;;;;;3.17;2.53;;;;;;;;;;5107315;27;20042;-85
2023/10/20 06:00:42;;;;;;;4.28;2.75;;;;;;;;;;5127326;27;20030;-85
2023/10/20 06:03:08;;;;;;;2.90;1.88;;;;;;;;;;5126691;27;20030;-85
2023/10/20 06:05:33;;;;;;;3.45;2.63;;;;;;;;;;5130018;27;20027;-86
2023/10/20 06:07:59;;;;;;;2.75;1.63;;;;;;;;;;5109600;27;20026;-84
2023/10/20 06:10:25;;;;;;;3.20;2.20;;;;;;;;;;5110162;27;20019;-84
2023/10/20 06:12:52;;;;;;;1.77;1.35;;;;;;;;;;5128480;27;20028;-84
2023/10/20 06:15:19;;;;;;;1.95;1.58;;;;;;;;;;5129254;27;20384;-85
2023/10/20 06:17:45;;;;;;;3.00;2.33;;;;;;;;;;5122939;27;20023;-85
2023/10/20 06:20:11;;;;;;;3.22;2.20;;;;;;;;;;5114499;27;20106;-86
2023/10/20 06:22:37;;;;;;;3.58;2.83;;;;;;;;;;5128749;27;20054;-86
2023/10/20 06:25:10;;;;;;;3.38;2.20;;;;;;;;;;5108224;27;20064;-83
2023/10/20 06:27:35;;;;;;;2.08;1.55;;;;;;;;;;5129960;27;20028;-84
2023/10/20 06:30:22;;;;;;;2.58;2.38;;;;;;;;;;5128486;27;20027;-86
2023/10/20 06:32:56;;;;;;;3.28;1.38;;;;;;;;;;5127776;27;20042;-85
2023/10/20 06:35:28;;;;;;;2.72;2.15;;;;;;;;;;5113786;27;20023;-87
2023/10/20 06:38:00;;;;;;;4.03;1.98;;;;;;;;;;5110628;27;20027;-85
2023/10/20 06:40:25;;;;;;;3.10;2.30;;;;;;;;;;5106779;27;20027;-82
2023/10/20 06:42:51;;;;;;;2.80;2.15;;;;;;;;;;5128194;27;20356;-84
2023/10/20 06:45:16;;;;;;;3.53;1.77;;;;;;;;;;5109990;28;20038;-83
2023/10/20 06:47:42;;;;;;;6.47;3.58;;;;;;;;;;5124143;27;20034;-83
2023/10/20 06:50:10;;;;;;;1.40;1.25;;;;;;;;;;5128224;27;20030;-82
2023/10/20 06:52:35;;;;;;;3.35;2.35;;;;;;;;;;5130637;27;20140;-84
2023/10/20 06:55:05;;;;;;;3.28;1.92;;;;;;;;;;5131404;27;20475;-83
2023/10/20 06:57:30;;;;;;;2.38;1.75;;;;;;;;;;5107444;27;20064;-85
2023/10/20 06:59:56;;;;;;;2.88;1.70;;;;;;;;;;5130372;27;20486;-82
2023/10/20 07:02:21;;;;;;;2.25;1.70;;;;;;;;;;5125861;27;20462;-84
2023/10/20 07:04:48;;;;;;;2.10;1.90;;;;;;;;;;5130671;27;20030;-84
2023/10/20 07:07:15;;;;;;;3.38;2.38;;;;;;;;;;5131958;27;20114;-83
2023/10/20 07:09:41;;;;;;;4.40;2.10;;;;;;;;;;5131905;27;20015;-83
2023/10/20 07:12:09;;;;;;;2.90;1.30;;;;;;;;;;5131321;27;20489;-82
2023/10/20 07:14:34;;;;;;;2.53;1.30;;;;;;;;;;5131241;27;20047;-84
2023/10/20 07:17:06;;;;;;;4.93;1.55;;;;;;;;;;5130798;27;20053;-84
2023/10/20 07:19:35;;;;;;;3.20;1.60;;;;;;;;;;5125900;27;20613;-85
2023/10/20 07:22:05;;;;;;;5.15;2.42;;;;;;;;;;5131963;27;20034;-83
2023/10/20 07:24:31;;;;;;;3.00;1.92;;;;;;;;;;5131439;27;20027;-85
2023/10/20 07:26:58;;;;;;;2.40;1.75;;;;;;;;;;5110534;27;20536;-83
2023/10/20 07:29:23;;;;;;;1.75;1.10;;;;;;;;;;5129523;27;20076;-84
2023/10/20 07:31:49;;;;;;;2.83;1.77;;;;;;;;;;5130860;27;20043;-86
2023/10/20 07:34:15;;;;;;;1.98;1.33;;;;;;;;;;5132113;27;20055;-84
2023/10/20 07:36:42;;;;;;;5.88;2.20;;;;;;;;;;5111158;27;20057;-85
2023/10/20 07:39:16;;;;;;;3.42;2.58;;;;;;;;;;5131961;27;20023;-84
2023/10/20 07:41:44;;;;;;;6.60;1.77;;;;;;;;;;5129777;27;20031;-85
2023/10/20 07:44:15;;;;;;;2.47;2.00;;;;;;;;;;5128455;27;20347;-83
2023/10/20 07:46:41;;;;;;;1.70;1.35;;;;;;;;;;5130679;27;20493;-84
2023/10/20 07:49:09;;;;;;;4.28;1.98;;;;;;;;;;5112544;27;20035;-82
2023/10/20 07:51:37;;;;;;;2.95;2.00;;;;;;;;;;5130263;27;20034;-84
2023/10/20 07:54:03;;;;;;;5.32;2.35;;;;;;;;;;5113324;27;20039;-84
2023/10/20 07:56:29;;;;;;;3.90;2.05;;;;;;;;;;5111969;27;20505;-85
2023/10/20 07:58:54;;;;;;;2.47;1.85;;;;;;;;;;5131779;27;20026;-84
2023/10/20 08:01:20;;;;;;;2.22;1.80;;;;;;;;;;5128400;27;20019;-82
2023/10/20 08:03:47;;;;;;;2.20;1.50;;;;;;;;;;5128957;27;20023;-85
2023/10/20 08:06:13;;;;;;;2.20;1.73;;;;;;;;;;5112676;27;20023;-86
2023/10/20 08:08:39;;;;;;;1.60;1.38;;;;;;;;;;5129383;27;20030;-83
2023/10/20 08:11:06;;;;;;;1.30;1.08;;;;;;;;;;5111138;27;20471;-84
2023/10/20 08:13:33;;;;;;;2.40;1.80;;;;;;;;;;5113350;28;20031;-85
2023/10/20 08:16:09;;;;;;;1.83;1.50;;;;;;;;;;5129494;27;20486;-86
2023/10/20 08:18:35;;;;;;;2.17;1.65;;;;;;;;;;5129619;27;20118;-83
2023/10/20 08:21:08;;;;;;;3.35;1.70;;;;;;;;;;5111531;28;20539;-83
2023/10/20 08:23:37;;;;;;;3.22;1.98;;;;;;;;;;5129760;28;20085;-85
2023/10/20 08:26:06;;;;;;;4.22;1.80;;;;;;;;;;5111962;28;20087;-85
2023/10/20 08:28:31;;;;;;;3.25;1.70;;;;;;;;;;5130241;27;20054;-85
2023/10/20 08:31:07;;;;;;;3.58;2.40;;;;;;;;;;5129991;28;20542;-83
2023/10/20 08:33:33;;;;;;;1.40;1.17;;;;;;;;;;5130684;28;20023;-83
2023/10/20 08:36:07;;;;;;;3.70;2.58;;;;;;;;;;5128052;28;20016;-84
2023/10/20 08:38:33;;;;;;;1.27;1.00;;;;;;;;;;5123516;28;20387;-84
2023/10/20 08:40:58;;;;;;;3.85;1.70;;;;;;;;;;5131769;28;20141;-83
2023/10/20 08:43:25;;;;;;;2.63;1.77;;;;;;;;;;5111594;28;20084;-84
2023/10/20 08:45:52;;;;;;;2.38;1.63;;;;;;;;;;5126252;27;20101;-85
2023/10/20 08:48:18;;;;;;;3.55;1.70;;;;;;;;;;5128621;28;20068;-87
2023/10/20 08:50:46;;;;;;;3.00;1.67;;;;;;;;;;5129272;28;20451;-86
2023/10/20 08:53:14;;;;;;;6.15;2.13;;;;;;;;;;5129404;28;20407;-84
2023/10/20 08:55:40;;;;;;;2.63;1.50;;;;;;;;;;5108429;28;20019;-84
2023/10/20 08:58:06;;;;;;;2.05;1.52;;;;;;;;;;5130517;28;20092;-84
2023/10/20 09:00:31;;;;;;;3.90;1.73;;;;;;;;;;5128143;27;20483;-85
2023/10/20 09:03:00;;;;;;;2.13;1.55;;;;;;;;;;5129902;28;20040;-84
2023/10/20 09:05:26;;;;;;;2.28;1.50;;;;;;;;;;5124645;28;20062;-83
2023/10/20 09:07:56;;;;;;;2.58;1.58;;;;;;;;;;5131088;28;20784;-85
2023/10/20 09:10:22;;;;;;;1.70;1.23;;;;;;;;;;5130892;27;20088;-84
2023/10/20 09:12:48;;;;;;;3.05;1.75;;;;;;;;;;5133295;27;20033;-86
2023/10/20 09:15:14;;;;;;;3.78;1.88;;;;;;;;;;5117498;27;20023;-87
2023/10/20 09:17:39;;;;;;;3.35;1.88;;;;;;;;;;5134311;27;20065;-87
2023/10/20 09:20:07;;;;;;;4.53;1.98;;;;;;;;;;5116207;27;20075;-84
2023/10/20 09:22:32;;;;;;;2.65;1.55;;;;;;;;;;5130351;27;20039;-87
2023/10/20 09:24:58;;;;;;;2.20;1.35;;;;;;;;;;5133038;27;20026;-85
2023/10/20 09:27:24;;;;;;;2.83;1.52;;;;;;;;;;5129033;27;20039;-86
2023/10/20 09:29:51;;;;;;;2.20;1.48;;;;;;;;;;5130366;27;20023;-85
2023/10/20 09:32:16;;;;;;;2.60;1.38;;;;;;;;;;5132199;27;20054;-90
2023/10/20 09:34:42;;;;;;;2.75;1.63;;;;;;;;;;5113535;27;20085;-90
2023/10/20 09:37:14;;;;;;;1.77;1.38;;;;;;;;;;5132164;27;20475;-88
2023/10/20 09:39:43;;;;;;;3.55;2.42;;;;;;;;;;5132028;27;20031;-86
2023/10/20 09:42:13;;;;;;;1.50;1.40;;;;;;;;;;5113947;27;20082;-87
2023/10/20 09:45:09;;;;;;;3.22;1.85;;;;;;;;;;5133031;27;20046;-88
2023/10/20 09:47:36;;;;;;;3.70;1.60;;;;;;;;;;5130672;27;20109;-87
2023/10/20 09:50:02;;;;;;;2.00;1.50;;;;;;;;;;5115720;27;20493;-84
2023/10/20 09:52:29;;;;;;;2.33;1.67;;;;;;;;;;5132503;27;20034;-86
2023/10/20 09:54:56;;;;;;;2.42;2.08;;;;;;;;;;5133286;27;20398;-87
2023/10/20 09:57:22;;;;;;;2.83;1.20;;;;;;;;;;5127691;27;20030;-89
2023/10/20 09:59:54;;;;;;;4.72;1.55;;;;;;;;;;5133785;27;20023;-90
2023/10/20 10:02:27;;;;;;;1.95;1.70;;;;;;;;;;5134118;27;20023;-87
2023/10/20 10:04:53;;;;;;;2.60;1.55;;;;;;;;;;5129635;27;20031;-87
2023/10/20 10:07:27;;;;;;;4.55;2.38;;;;;;;;;;5113129;27;20027;-89
2023/10/20 10:09:55;;;;;;;1.95;1.27;;;;;;;;;;5131761;27;20076;-89
2023/10/20 10:12:23;;;;;;;3.97;2.15;;;;;;;;;;5113846;27;20124;-88
2023/10/20 10:14:59;;;;;;;3.80;2.20;;;;;;;;;;5125900;27;20027;-88
2023/10/20 10:17:28;;;;;;;2.97;2.00;;;;;;;;;;5132401;27;20054;-86
2023/10/20 10:19:56;;;;;;;2.75;1.73;;;;;;;;;;5131362;27;20106;-85
2023/10/20 10:22:26;;;;;;;3.28;2.20;;;;;;;;;;5133066;27;20043;-89
2023/10/20 10:24:56;;;;;;;5.97;1.60;;;;;;;;;;5130705;27;20368;-82
2023/10/20 10:27:26;;;;;;;2.50;1.63;;;;;;;;;;5113490;27;20471;-82
2023/10/20 10:30:00;;;;;;;;;;;;;;;;;;5130909;27;20027;-85
2023/10/20 10:32:33;;;;;;;4.03;2.08;;;;;;;;;;5131578;27;20462;-85
2023/10/20 10:35:00;;;;;;;3.63;1.35;;;;;;;;;;5133205;27;20061;-87
2023/10/20 10:37:37;;;;;;;1.70;1.50;;;;;;;;;;5114590;27;20027;-89
2023/10/20 10:40:11;;;;;;;3.47;1.73;;;;;;;;;;5128050;27;20031;-89
2023/10/20 10:42:47;;;;;;;7.25;1.92;;;;;;;;;;5113924;27;20057;-88
2023/10/20 10:45:36;;;;;;;2.95;1.45;;;;;;;;;;5129841;27;20513;-88
2023/10/20 10:48:05;;;;;;;2.25;1.52;;;;;;;;;;5131923;27;20060;-89
2023/10/20 10:50:32;;;;;;;3.17;1.58;;;;;;;;;;5114803;27;20034;-87
2023/10/20 10:52:59;;;;;;;3.17;1.83;;;;;;;;;;5131142;27;20066;-89
2023/10/20 10:55:25;;;;;;;2.50;1.85;;;;;;;;;;5127862;27;20147;-89
2023/10/20 10:57:51;;;;;;;1.67;1.25;;;;;;;;;;5130683;27;20481;-89
2023/10/20 11:00:17;;;;;;;1.83;1.30;;;;;;;;;;5130562;27;20053;-88
2023/10/20 11:02:44;;;;;;;2.22;1.10;;;;;;;;;;5130410;27;20026;-88
2023/10/20 11:05:10;;;;;;;1.55;1.40;;;;;;;;;;5130173;27;20023;-84
2023/10/20 11:07:36;;;;;;;2.70;1.35;;;;;;;;;;5114269;27;20486;-90
2023/10/20 11:10:03;;;;;;;1.30;0.95;;;;;;;;;;5131970;27;20034;-88
2023/10/20 11:12:47;;;;;;;2.20;1.25;;;;;;;;;;5129980;27;20059;-85
2023/10/20 11:15:14;;;;;;;4.40;1.10;;;;;;;;;;5131702;27;20026;-83
2023/10/20 11:17:41;;;;;;;3.28;2.03;;;;;;;;;;5131403;27;20038;-88
2023/10/20 11:20:10;;;;;;;2.20;0.85;;;;;;;;;;5130530;27;20031;-89
2023/10/20 11:22:39;;;;;;;2.25;0.93;;;;;;;;;;5132166;27;20043;-88
2023/10/20 11:25:05;;;;;;;2.55;1.40;;;;;;;;;;5132606;27;20386;-87
2023/10/20 11:27:41;;;;;;;1.88;1.10;;;;;;;;;;5127346;27;20081;-88
2023/10/20 11:30:07;;;;;;;2.33;1.30;;;;;;;;;;5128397;27;20027;-87
2023/10/20 11:32:33;;;;;;;3.60;1.92;;;;;;;;;;5129315;27;20450;-86
2023/10/20 11:35:00;;;;;;;4.20;2.08;;;;;;;;;;5111116;27;20027;-88
2023/10/20 11:37:25;;;;;;;7.75;1.73;;;;;;;;;;5132210;27;20027;-87
2023/10/20 11:39:51;;;;;;;3.97;1.77;;;;;;;;;;5127594;27;20466;-88
2023/10/20 11:42:16;;;;;;;1.23;0.90;;;;;;;;;;5132516;27;20027;-88
2023/10/20 11:44:41;;;;;;;1.92;0.98;;;;;;;;;;5129834;27;20030;-89
2023/10/20 11:47:07;;;;;;;1.63;1.13;;;;;;;;;;5131598;27;20573;-90
2023/10/20 11:49:32;;;;;;;4.28;1.33;;;;;;;;;;5130205;27;20082;-89
2023/10/20 11:51:58;;;;;;;2.15;0.77;;;;;;;;;;5131114;27;20050;-89
2023/10/20 11:54:23;;;;;;;3.55;1.70;;;;;;;;;;5131650;27;20023;-88
2023/10/20 11:56:50;;;;;;;1.98;1.52;;;;;;;;;;5132960;27;20036;-91
2023/10/20 11:59:16;;;;;;;2.20;1.10;;;;;;;;;;5132345;27;20061;-87
2023/10/20 12:01:41;;;;;;;1.70;1.17;;;;;;;;;;5127661;27;20027;-86
2023/10/20 12:04:08;;;;;;;1.38;1.20;;;;;;;;;;5126830;27;20027;-89
2023/10/20 12:06:36;;;;;;;8.38;1.20;;;;;;;;;;5108031;27;20047;-86
2023/10/20 12:09:07;;;;;;;1.95;1.27;;;;;;;;;;5131779;27;20027;-87
2023/10/20 12:11:33;;;;;;;1.75;0.55;;;;;;;;;;5129581;27;20034;-86
2023/10/20 12:13:59;;;;;;;0.88;0.75;;;;;;;;;;5130013;27;20026;-84
2023/10/20 12:16:27;;;;;;;3.13;1.20;;;;;;;;;;5131475;27;20148;-85
2023/10/20 12:18:53;;;;;;;3.53;1.38;;;;;;;;;;5130624;27;20075;-84
2023/10/20 12:21:18;;;;;;;3.80;1.50;;;;;;;;;;5125848;27;20109;-84
2023/10/20 12:23:44;;;;;;;14.95;1.30;;;;;;;;;;5127896;28;20043;-82
2023/10/20 12:26:09;;;;;;;1.30;1.05;;;;;;;;;;5124926;28;20422;-83
2023/10/20 12:28:35;;;;;;;3.00;1.90;;;;;;;;;;5122936;27;20031;-86
2023/10/20 12:31:00;;;;;;;2.03;1.20;;;;;;;;;;5124398;28;20023;-82
2023/10/20 12:33:27;;;;;;;4.28;1.58;;;;;;;;;;5128293;28;20076;-84
2023/10/20 12:35:55;;;;;;;1.20;1.00;;;;;;;;;;5125864;28;20027;-83
2023/10/20 12:38:23;;;;;;;1.60;0.88;;;;;;;;;;5126432;28;20023;-83
2023/10/20 12:40:49;;;;;;;2.83;1.50;;;;;;;;;;5126237;28;20023;-83
2023/10/20 12:43:15;;;;;;;1.48;0.90;;;;;;;;;;5131408;27;20154;-82
2023/10/20 12:45:41;;;;;;;2.78;1.10;;;;;;;;;;5129683;27;20080;-83
2023/10/20 12:48:07;;;;;;;2.75;1.17;;;;;;;;;;5132410;27;20027;-82
2023/10/20 12:50:32;;;;;;;2.70;1.55;;;;;;;;;;5128982;27;20034;-87
2023/10/20 12:53:02;;;;;;;2.22;1.27;;;;;;;;;;5115289;27;20022;-80
2023/10/20 12:55:28;;;;;;;3.15;1.00;;;;;;;;;;5131338;27;20078;-83
2023/10/20 12:57:53;;;;;;;1.77;0.85;;;;;;;;;;5132406;27;20419;-83
2023/10/20 13:00:20;;;;;;;2.05;0.93;;;;;;;;;;5128879;27;20047;-82
2023/10/20 13:02:49;;;;;;;1.85;1.20;;;;;;;;;;5135277;27;20022;-82
2023/10/20 13:05:15;;;;;;;2.38;1.40;;;;;;;;;;5116893;27;20030;-80
2023/10/20 13:07:41;;;;;;;1.92;1.13;;;;;;;;;;5135686;27;20092;-81
2023/10/20 13:10:07;;;;;;;1.98;1.23;;;;;;;;;;5135134;27;20030;-80
2023/10/20 13:12:32;;;;;;;1.05;0.90;;;;;;;;;;5130713;27;20352;-80
2023/10/20 13:14:58;;;;;;;1.52;0.95;;;;;;;;;;5135334;27;20035;-80
2023/10/20 13:17:23;;;;;;;4.32;1.27;;;;;;;;;;5130862;27;20351;-79
2023/10/20 13:19:52;;;;;;;3.85;0.93;;;;;;;;;;5114121;27;20588;-82
2023/10/20 13:22:18;;;;;;;1.48;1.00;;;;;;;;;;5134998;27;20059;-80
2023/10/20 13:24:44;;;;;;;1.90;1.17;;;;;;;;;;5134144;27;20027;-81
2023/10/20 13:27:10;;;;;;;7.97;1.25;;;;;;;;;;5134865;27;20057;-84
2023/10/20 13:29:35;;;;;;;0.95;0.70;;;;;;;;;;5135341;27;20015;-82
2023/10/20 13:32:01;;;;;;;0.40;0.40;;;;;;;;;;5133807;27;20027;-81
2023/10/20 13:34:26;;;;;;;1.27;0.70;;;;;;;;;;5131797;27;20027;-81
2023/10/20 13:36:51;;;;;;;1.13;0.93;;;;;;;;;;5114270;27;20436;-82
2023/10/20 13:39:22;;;;;;;4.47;1.15;;;;;;;;;;5132600;27;20042;-81
2023/10/20 13:41:47;;;;;;;2.75;1.50;;;;;;;;;;5133880;27;20390;-81
2023/10/20 13:44:13;;;;;;;2.33;1.00;;;;;;;;;;5135063;27;20023;-82
2023/10/20 13:46:39;;;;;;;1.40;0.60;;;;;;;;;;5128278;27;20076;-82
2023/10/20 13:49:06;;;;;;;1.95;0.95;;;;;;;;;;5134872;27;20424;-81
2023/10/20 13:51:31;;;;;;;0.90;0.55;;;;;;;;;;5130975;27;20023;-81
2023/10/20 13:53:57;;;;;;;0.68;0.57;;;;;;;;;;5134103;27;20030;-81
2023/10/20 13:56:22;;;;;;;0.93;0.65;;;;;;;;;;5132508;27;20027;-82
2023/10/20 13:58:48;;;;;;;1.70;0.98;;;;;;;;;;5134245;27;20030;-82
2023/10/20 14:01:13;;;;;;;0.70;0.55;;;;;;;;;;5133658;27;20031;-83
2023/10/20 14:03:39;;;;;;;1.50;0.75;;;;;;;;;;5133116;27;20428;-83
2023/10/20 14:06:06;;;;;;;5.85;0.98;;;;;;;;;;5131499;27;20030;-83
2023/10/20 14:08:32;;;;;;;4.50;0.60;;;;;;;;;;5133932;27;20054;-81
2023/10/20 14:11:00;;;;;;;16.88;1.33;;;;;;;;;;5130871;27;20023;-83
2023/10/20 14:13:25;;;;;;;1.13;0.93;;;;;;;;;;5134060;27;20031;-83
2023/10/20 14:15:50;;;;;;;2.97;1.25;;;;;;;;;;5132130;27;20091;-83
2023/10/20 14:18:16;;;;;;;2.00;0.68;;;;;;;;;;5132463;27;20741;-83
2023/10/20 14:20:41;;;;;;;2.55;1.17;;;;;;;;;;5133594;27;20043;-82
2023/10/20 14:23:07;;;;;;;1.55;0.75;;;;;;;;;;5131387;27;20124;-82
2023/10/20 14:25:33;;;;;;;5.07;0.65;;;;;;;;;;5133843;27;20023;-83
2023/10/20 14:27:58;;;;;;;1.30;0.70;;;;;;;;;;5132010;27;20041;-80
2023/10/20 14:30:23;;;;;;;0.77;0.40;;;;;;;;;;5114165;27;20031;-81
2023/10/20 14:32:49;;;;;;;1.00;0.40;;;;;;;;;;5114610;27;20526;-80
2023/10/20 14:35:14;;;;;;;1.35;0.75;;;;;;;;;;5132053;27;20023;-82
2023/10/20 14:37:40;;;;;;;1.50;0.75;;;;;;;;;;5133130;27;20088;-81
2023/10/20 14:40:06;;;;;;;0.75;0.45;;;;;;;;;;5128900;27;20035;-83
2023/10/20 14:42:32;;;;;;;0.70;0.60;;;;;;;;;;5130767;27;20037;-82
2023/10/20 14:44:57;;;;;;;1.90;0.73;;;;;;;;;;5113360;27;20435;-83
2023/10/20 14:47:23;;;;;;;1.10;0.60;;;;;;;;;;5128215;27;20033;-81
2023/10/20 14:49:49;;;;;;;4.03;0.82;;;;;;;;;;5129283;27;20042;-82
2023/10/20 14:52:16;;;;;;;2.63;0.80;;;;;;;;;;5114763;27;20045;-81
2023/10/20 14:54:41;;;;;;;0.85;0.75;;;;;;;;;;5130743;27;20031;-82
2023/10/20 14:57:07;;;;;;;0.98;0.68;;;;;;;;;;5113671;27;20027;-82
2023/10/20 14:59:32;;;;;;;2.05;0.75;;;;;;;;;;5130667;27;20391;-83
2023/10/20 15:01:57;;;;;;;4.45;0.63;;;;;;;;;;5133127;27;20114;-83
2023/10/20 15:04:23;;;;;;;1.88;0.90;;;;;;;;;;5113874;27;20486;-81
2023/10/20 15:06:48;;;;;;;0.90;0.52;;;;;;;;;;5131701;27;20152;-81
2023/10/20 15:09:14;;;;;;;0.85;0.60;;;;;;;;;;5131817;27;20030;-82
2023/10/20 15:11:39;;;;;;;0.73;0.63;;;;;;;;;;5130028;27;20019;-82
